Other Surface Observations
Issued by NWS Great Falls, MT

Home | Current Version | Previous Version | Text Only | Print | Product List | Glossary On
Versions: 1 2 3 4 5 6 7 8 9 10 11 12 13 14 15 16 17 18 19 20 21 22 23 24 25 26 27 28 29 30 31 32 33 34 35 36 37 38 39 40 41 42 43 44 45 46 47 48 49 50
447
SXUS55 KTFX 142209
OSOTFX

AREA AWOS OBSERVATIONS
NATIONAL WEATHER SERVICE GREAT FALLS MT
0309 PM MST Sun Feb 14 2016

METAR K6S8 142155Z AUTO 28023KT 40SM 12/M07 A2984 RMK A01 T01161072
METAR K6S8 142055Z AUTO 29020KT 40SM 11/M08 A2983 RMK A01 T01051077
METAR K6S8 142055Z AUTO 29020KT 40SM 11/M08 A2983 RMK A01 T01051077
METAR K7S1 142055Z AUTO 23007KT 40SM 08/M06 A2999 RMK A01 T00771061
METAR K97M 142055Z AUTO 29008KT 40SM 03/01 A2975 RMK A01 T00270005
METAR K9S2 142055Z AUTO 26008KT 40SM 03/M05 A2968 RMK A01 T00331050
METAR KRPX 142155Z AUTO 29018KT 40SM 10/M08 A2976 RMK A01 T01001083
METAR KRPX 142055Z AUTO 31017KT 40SM 09/M08 A2975 RMK A01 T00941077
METAR KRPX 142055Z AUTO 31017KT 40SM 09/M08 A2975 RMK A01 T00941077
METAR KS01 142155Z AUTO 25019KT 40SM 08/M06 A2988 RMK A01 T00831061
METAR KS01 142055Z AUTO 25027KT 40SM 08/M07 A2988 RMK A01 T00831066
METAR KS34 142155Z AUTO 31005KT 40SM 09/02 A3005 RMK A01 T00880016
METAR KS34 142055Z AUTO 31003KT 25SM 08/02 A3006 RMK A01 T00830016
METAR KTHM 142055Z AUTO 21008KT 15SM 07/04 A3012 RMK A01 T00660038



USA.gov is the U.S. government's official web portal to all federal, state and local government web resources and services.